sensor_id;sensor_type;location;lat;lon;timestamp;P1;durP1;ratioP1;P2;durP2;ratioP2
3337;SDS011;1682;49.286;10.788;2023-06-22T00:01:20;14.50;;;11.07;;
3337;SDS011;1682;49.286;10.788;2023-06-22T00:03:48;10.70;;;9.70;;
3337;SDS011;1682;49.286;10.788;2023-06-22T00:06:15;13.93;;;11.93;;
3337;SDS011;1682;49.286;10.788;2023-06-22T00:08:42;14.13;;;12.70;;
3337;SDS011;1682;49.286;10.788;2023-06-22T00:11:10;16.00;;;14.30;;
3337;SDS011;1682;49.286;10.788;2023-06-22T00:13:38;13.63;;;12.20;;
3337;SDS011;1682;49.286;10.788;2023-06-22T00:16:06;13.67;;;11.07;;
3337;SDS011;1682;49.286;10.788;2023-06-22T00:18:33;21.70;;;16.00;;
3337;SDS011;1682;49.286;10.788;2023-06-22T00:21:00;23.73;;;14.83;;
3337;SDS011;1682;49.286;10.788;2023-06-22T00:23:27;14.53;;;11.87;;
3337;SDS011;1682;49.286;10.788;2023-06-22T00:25:59;13.67;;;10.70;;
3337;SDS011;1682;49.286;10.788;2023-06-22T00:28:26;12.90;;;10.70;;
3337;SDS011;1682;49.286;10.788;2023-06-22T00:30:55;12.17;;;9.10;;
3337;SDS011;1682;49.286;10.788;2023-06-22T00:33:22;10.53;;;9.40;;
3337;SDS011;1682;49.286;10.788;2023-06-22T00:35:49;14.85;;;10.10;;
3337;SDS011;1682;49.286;10.788;2023-06-22T00:38:17;10.60;;;9.50;;
3337;SDS011;1682;49.286;10.788;2023-06-22T00:40:45;10.20;;;9.30;;
3337;SDS011;1682;49.286;10.788;2023-06-22T00:43:12;11.03;;;9.57;;
3337;SDS011;1682;49.286;10.788;2023-06-22T00:45:39;11.67;;;9.73;;
3337;SDS011;1682;49.286;10.788;2023-06-22T00:48:08;10.33;;;9.30;;
3337;SDS011;1682;49.286;10.788;2023-06-22T00:50:35;10.13;;;9.23;;
3337;SDS011;1682;49.286;10.788;2023-06-22T00:53:03;11.47;;;9.70;;
3337;SDS011;1682;49.286;10.788;2023-06-22T00:55:33;10.83;;;9.77;;
3337;SDS011;1682;49.286;10.788;2023-06-22T00:58:02;11.33;;;10.20;;
3337;SDS011;1682;49.286;10.788;2023-06-22T01:00:30;11.53;;;10.30;;
3337;SDS011;1682;49.286;10.788;2023-06-22T01:02:58;10.53;;;9.50;;
3337;SDS011;1682;49.286;10.788;2023-06-22T01:05:27;10.53;;;9.50;;
3337;SDS011;1682;49.286;10.788;2023-06-22T01:08:07;13.00;;;9.87;;
3337;SDS011;1682;49.286;10.788;2023-06-22T01:10:36;11.37;;;9.93;;
3337;SDS011;1682;49.286;10.788;2023-06-22T01:13:07;13.23;;;11.10;;
3337;SDS011;1682;49.286;10.788;2023-06-22T01:15:36;12.90;;;10.63;;
3337;SDS011;1682;49.286;10.788;2023-06-22T01:18:04;11.17;;;10.10;;
3337;SDS011;1682;49.286;10.788;2023-06-22T01:20:34;11.60;;;10.00;;
3337;SDS011;1682;49.286;10.788;2023-06-22T01:23:05;12.13;;;9.90;;
3337;SDS011;1682;49.286;10.788;2023-06-22T01:25:36;11.20;;;10.03;;
3337;SDS011;1682;49.286;10.788;2023-06-22T01:28:12;11.60;;;10.40;;
3337;SDS011;1682;49.286;10.788;2023-06-22T01:30:46;12.83;;;11.57;;
3337;SDS011;1682;49.286;10.788;2023-06-22T01:33:15;14.50;;;12.30;;
3337;SDS011;1682;49.286;10.788;2023-06-22T01:35:43;13.50;;;10.77;;
3337;SDS011;1682;49.286;10.788;2023-06-22T01:38:11;12.83;;;10.90;;
3337;SDS011;1682;49.286;10.788;2023-06-22T01:40:42;13.10;;;11.70;;
3337;SDS011;1682;49.286;10.788;2023-06-22T01:43:10;13.87;;;12.37;;
3337;SDS011;1682;49.286;10.788;2023-06-22T01:45:38;13.07;;;11.77;;
3337;SDS011;1682;49.286;10.788;2023-06-22T01:48:09;13.30;;;11.30;;
3337;SDS011;1682;49.286;10.788;2023-06-22T01:51:14;16.13;;;12.10;;
3337;SDS011;1682;49.286;10.788;2023-06-22T01:53:44;12.63;;;11.33;;
3337;SDS011;1682;49.286;10.788;2023-06-22T01:56:13;12.87;;;11.40;;
3337;SDS011;1682;49.286;10.788;2023-06-22T01:58:42;20.73;;;12.50;;
3337;SDS011;1682;49.286;10.788;2023-06-22T02:01:12;13.83;;;11.33;;
3337;SDS011;1682;49.286;10.788;2023-06-22T02:03:43;17.07;;;12.27;;
3337;SDS011;1682;49.286;10.788;2023-06-22T02:06:13;14.23;;;12.43;;
3337;SDS011;1682;49.286;10.788;2023-06-22T02:08:44;17.30;;;12.50;;
3337;SDS011;1682;49.286;10.788;2023-06-22T02:11:13;14.03;;;12.73;;
3337;SDS011;1682;49.286;10.788;2023-06-22T02:13:41;12.20;;;10.93;;
3337;SDS011;1682;49.286;10.788;2023-06-22T02:16:09;15.57;;;12.87;;
3337;SDS011;1682;49.286;10.788;2023-06-22T02:18:50;13.33;;;11.67;;
3337;SDS011;1682;49.286;10.788;2023-06-22T02:21:24;25.23;;;16.90;;
3337;SDS011;1682;49.286;10.788;2023-06-22T02:24:00;60.67;;;28.10;;
3337;SDS011;1682;49.286;10.788;2023-06-22T02:26:42;49.00;;;25.30;;
3337;SDS011;1682;49.286;10.788;2023-06-22T02:29:12;25.90;;;18.65;;
3337;SDS011;1682;49.286;10.788;2023-06-22T02:31:39;15.85;;;13.40;;
3337;SDS011;1682;49.286;10.788;2023-06-22T02:34:08;18.37;;;12.17;;
3337;SDS011;1682;49.286;10.788;2023-06-22T02:36:35;13.17;;;11.77;;
3337;SDS011;1682;49.286;10.788;2023-06-22T02:39:02;13.90;;;11.77;;
3337;SDS011;1682;49.286;10.788;2023-06-22T02:41:30;12.40;;;11.13;;
3337;SDS011;1682;49.286;10.788;2023-06-22T02:43:57;12.33;;;11.00;;
3337;SDS011;1682;49.286;10.788;2023-06-22T02:46:24;16.67;;;12.90;;
3337;SDS011;1682;49.286;10.788;2023-06-22T02:48:51;18.20;;;11.03;;
3337;SDS011;1682;49.286;10.788;2023-06-22T02:51:20;12.60;;;11.40;;
3337;SDS011;1682;49.286;10.788;2023-06-22T02:53:47;13.20;;;10.90;;
3337;SDS011;1682;49.286;10.788;2023-06-22T02:56:17;13.87;;;12.53;;
3337;SDS011;1682;49.286;10.788;2023-06-22T02:58:49;14.40;;;11.20;;
3337;SDS011;1682;49.286;10.788;2023-06-22T03:01:17;13.97;;;12.47;;
3337;SDS011;1682;49.286;10.788;2023-06-22T03:03:49;17.23;;;12.30;;
3337;SDS011;1682;49.286;10.788;2023-06-22T03:06:16;13.77;;;12.33;;
3337;SDS011;1682;49.286;10.788;2023-06-22T03:08:50;14.35;;;12.05;;
3337;SDS011;1682;49.286;10.788;2023-06-22T03:11:17;12.17;;;10.90;;
3337;SDS011;1682;49.286;10.788;2023-06-22T03:13:44;20.10;;;14.20;;
3337;SDS011;1682;49.286;10.788;2023-06-22T03:16:12;13.03;;;11.60;;
3337;SDS011;1682;49.286;10.788;2023-06-22T03:18:39;13.77;;;12.00;;
3337;SDS011;1682;49.286;10.788;2023-06-22T03:21:06;13.00;;;11.20;;
3337;SDS011;1682;49.286;10.788;2023-06-22T03:23:33;15.27;;;11.47;;
3337;SDS011;1682;49.286;10.788;2023-06-22T03:26:02;14.93;;;12.13;;
3337;SDS011;1682;49.286;10.788;2023-06-22T03:28:29;13.13;;;11.40;;
3337;SDS011;1682;49.286;10.788;2023-06-22T03:30:57;15.10;;;12.93;;
3337;SDS011;1682;49.286;10.788;2023-06-22T03:33:24;14.70;;;11.87;;
3337;SDS011;1682;49.286;10.788;2023-06-22T03:35:51;13.83;;;12.13;;
3337;SDS011;1682;49.286;10.788;2023-06-22T03:38:18;13.77;;;12.20;;
3337;SDS011;1682;49.286;10.788;2023-06-22T03:40:46;13.90;;;12.50;;
3337;SDS011;1682;49.286;10.788;2023-06-22T03:43:15;15.67;;;11.83;;
3337;SDS011;1682;49.286;10.788;2023-06-22T03:45:42;14.70;;;12.43;;
3337;SDS011;1682;49.286;10.788;2023-06-22T03:48:10;19.70;;;15.30;;
3337;SDS011;1682;49.286;10.788;2023-06-22T03:50:37;17.13;;;15.33;;
3337;SDS011;1682;49.286;10.788;2023-06-22T03:53:05;16.30;;;14.63;;
3337;SDS011;1682;49.286;10.788;2023-06-22T03:55:33;25.33;;;18.90;;
3337;SDS011;1682;49.286;10.788;2023-06-22T03:58:01;14.00;;;12.60;;
3337;SDS011;1682;49.286;10.788;2023-06-22T04:00:32;13.20;;;11.60;;
3337;SDS011;1682;49.286;10.788;2023-06-22T04:02:59;12.33;;;11.13;;
3337;SDS011;1682;49.286;10.788;2023-06-22T04:05:26;12.47;;;11.17;;
3337;SDS011;1682;49.286;10.788;2023-06-22T04:07:54;15.30;;;13.83;;
3337;SDS011;1682;49.286;10.788;2023-06-22T04:10:21;11.70;;;10.50;;
3337;SDS011;1682;49.286;10.788;2023-06-22T04:12:48;13.87;;;12.43;;
3337;SDS011;1682;49.286;10.788;2023-06-22T04:15:15;15.80;;;11.10;;
3337;SDS011;1682;49.286;10.788;2023-06-22T04:17:44;15.50;;;13.90;;
3337;SDS011;1682;49.286;10.788;2023-06-22T04:20:11;12.50;;;11.20;;
3337;SDS011;1682;49.286;10.788;2023-06-22T04:22:38;12.73;;;11.43;;
3337;SDS011;1682;49.286;10.788;2023-06-22T04:25:05;15.23;;;11.37;;
3337;SDS011;1682;49.286;10.788;2023-06-22T04:27:33;12.97;;;10.93;;
3337;SDS011;1682;49.286;10.788;2023-06-22T04:30:02;12.13;;;10.93;;
3337;SDS011;1682;49.286;10.788;2023-06-22T04:32:30;12.00;;;10.90;;
3337;SDS011;1682;49.286;10.788;2023-06-22T04:34:58;12.30;;;10.63;;
3337;SDS011;1682;49.286;10.788;2023-06-22T04:37:26;10.97;;;9.87;;
3337;SDS011;1682;49.286;10.788;2023-06-22T04:39:53;11.93;;;9.40;;
3337;SDS011;1682;49.286;10.788;2023-06-22T04:42:20;11.23;;;9.90;;
3337;SDS011;1682;49.286;10.788;2023-06-22T04:44:47;11.53;;;10.43;;
3337;SDS011;1682;49.286;10.788;2023-06-22T04:47:15;12.40;;;11.10;;
3337;SDS011;1682;49.286;10.788;2023-06-22T04:49:42;11.47;;;10.27;;
3337;SDS011;1682;49.286;10.788;2023-06-22T04:52:11;12.47;;;9.83;;
3337;SDS011;1682;49.286;10.788;2023-06-22T04:54:39;11.77;;;10.67;;
3337;SDS011;1682;49.286;10.788;2023-06-22T04:57:12;13.50;;;8.93;;
3337;SDS011;1682;49.286;10.788;2023-06-22T04:59:40;10.13;;;9.10;;
3337;SDS011;1682;49.286;10.788;2023-06-22T05:02:07;10.40;;;9.40;;
3337;SDS011;1682;49.286;10.788;2023-06-22T05:04:35;11.23;;;10.13;;
3337;SDS011;1682;49.286;10.788;2023-06-22T05:07:03;10.10;;;9.03;;
3337;SDS011;1682;49.286;10.788;2023-06-22T05:09:32;11.40;;;10.00;;
3337;SDS011;1682;49.286;10.788;2023-06-22T05:11:59;10.40;;;9.40;;
3337;SDS011;1682;49.286;10.788;2023-06-22T05:14:27;11.30;;;10.10;;
3337;SDS011;1682;49.286;10.788;2023-06-22T05:16:55;17.73;;;10.93;;
3337;SDS011;1682;49.286;10.788;2023-06-22T05:19:23;17.03;;;10.33;;
3337;SDS011;1682;49.286;10.788;2023-06-22T05:21:56;10.00;;;9.10;;
3337;SDS011;1682;49.286;10.788;2023-06-22T05:24:23;14.03;;;9.90;;
3337;SDS011;1682;49.286;10.788;2023-06-22T05:26:52;10.73;;;9.53;;
3337;SDS011;1682;49.286;10.788;2023-06-22T05:29:20;14.00;;;10.03;;
3337;SDS011;1682;49.286;10.788;2023-06-22T05:31:48;11.97;;;9.70;;
3337;SDS011;1682;49.286;10.788;2023-06-22T05:34:15;11.37;;;9.77;;
3337;SDS011;1682;49.286;10.788;2023-06-22T05:36:42;10.10;;;9.10;;
3337;SDS011;1682;49.286;10.788;2023-06-22T05:39:13;11.67;;;9.17;;
3337;SDS011;1682;49.286;10.788;2023-06-22T05:41:40;12.30;;;9.90;;
3337;SDS011;1682;49.286;10.788;2023-06-22T05:44:09;14.60;;;12.23;;
3337;SDS011;1682;49.286;10.788;2023-06-22T05:46:36;10.37;;;9.10;;
3337;SDS011;1682;49.286;10.788;2023-06-22T05:51:31;9.63;;;8.40;;
3337;SDS011;1682;49.286;10.788;2023-06-22T05:53:58;8.83;;;7.53;;
3337;SDS011;1682;49.286;10.788;2023-06-22T05:56:25;10.20;;;8.93;;
3337;SDS011;1682;49.286;10.788;2023-06-22T05:58:53;12.87;;;8.93;;
3337;SDS011;1682;49.286;10.788;2023-06-22T06:01:21;10.33;;;8.77;;
3337;SDS011;1682;49.286;10.788;2023-06-22T06:03:51;10.23;;;9.23;;
3337;SDS011;1682;49.286;10.788;2023-06-22T06:06:18;10.37;;;9.10;;
3337;SDS011;1682;49.286;10.788;2023-06-22T06:11:13;9.63;;;8.40;;
3337;SDS011;1682;49.286;10.788;2023-06-22T06:16:07;8.93;;;8.13;;
3337;SDS011;1682;49.286;10.788;2023-06-22T06:18:36;9.37;;;8.30;;
3337;SDS011;1682;49.286;10.788;2023-06-22T06:21:03;10.85;;;9.45;;
3337;SDS011;1682;49.286;10.788;2023-06-22T06:30:51;7.67;;;6.97;;
3337;SDS011;1682;49.286;10.788;2023-06-22T06:33:19;11.43;;;8.37;;
3337;SDS011;1682;49.286;10.788;2023-06-22T06:35:47;9.30;;;8.03;;
3337;SDS011;1682;49.286;10.788;2023-06-22T06:38:14;9.63;;;8.00;;
3337;SDS011;1682;49.286;10.788;2023-06-22T06:40:42;11.07;;;9.00;;
3337;SDS011;1682;49.286;10.788;2023-06-22T06:43:10;9.63;;;8.70;;
3337;SDS011;1682;49.286;10.788;2023-06-22T06:45:37;9.03;;;8.23;;
3337;SDS011;1682;49.286;10.788;2023-06-22T06:48:04;7.73;;;6.93;;
3337;SDS011;1682;49.286;10.788;2023-06-22T06:50:32;10.17;;;7.83;;
3337;SDS011;1682;49.286;10.788;2023-06-22T06:53:00;8.03;;;7.10;;
3337;SDS011;1682;49.286;10.788;2023-06-22T06:55:27;7.57;;;6.63;;
3337;SDS011;1682;49.286;10.788;2023-06-22T06:57:58;10.43;;;7.20;;
3337;SDS011;1682;49.286;10.788;2023-06-22T07:00:25;7.60;;;6.90;;
3337;SDS011;1682;49.286;10.788;2023-06-22T07:02:52;7.50;;;6.87;;
3337;SDS011;1682;49.286;10.788;2023-06-22T07:05:19;13.93;;;8.20;;
3337;SDS011;1682;49.286;10.788;2023-06-22T07:07:47;7.00;;;6.30;;
3337;SDS011;1682;49.286;10.788;2023-06-22T07:10:16;8.03;;;7.20;;
3337;SDS011;1682;49.286;10.788;2023-06-22T07:12:43;9.30;;;7.33;;
3337;SDS011;1682;49.286;10.788;2023-06-22T07:15:10;8.47;;;6.83;;
3337;SDS011;1682;49.286;10.788;2023-06-22T07:17:38;7.60;;;6.33;;
3337;SDS011;1682;49.286;10.788;2023-06-22T07:20:06;7.60;;;6.90;;
3337;SDS011;1682;49.286;10.788;2023-06-22T07:22:35;7.53;;;6.83;;
3337;SDS011;1682;49.286;10.788;2023-06-22T07:25:03;8.20;;;7.10;;
3337;SDS011;1682;49.286;10.788;2023-06-22T07:27:35;8.30;;;6.00;;
3337;SDS011;1682;49.286;10.788;2023-06-22T07:30:05;8.03;;;6.50;;
3337;SDS011;1682;49.286;10.788;2023-06-22T07:32:33;9.23;;;7.50;;
3337;SDS011;1682;49.286;10.788;2023-06-22T07:35:00;8.77;;;6.50;;
3337;SDS011;1682;49.286;10.788;2023-06-22T07:37:27;7.33;;;6.63;;
3337;SDS011;1682;49.286;10.788;2023-06-22T07:39:55;6.90;;;6.27;;
3337;SDS011;1682;49.286;10.788;2023-06-22T07:42:24;7.13;;;6.20;;
3337;SDS011;1682;49.286;10.788;2023-06-22T07:44:53;8.37;;;6.70;;
3337;SDS011;1682;49.286;10.788;2023-06-22T07:47:21;11.33;;;6.80;;
3337;SDS011;1682;49.286;10.788;2023-06-22T07:49:50;7.53;;;6.33;;
3337;SDS011;1682;49.286;10.788;2023-06-22T07:52:19;7.37;;;6.07;;
3337;SDS011;1682;49.286;10.788;2023-06-22T07:54:47;6.80;;;6.17;;
3337;SDS011;1682;49.286;10.788;2023-06-22T07:57:14;6.67;;;6.07;;
3337;SDS011;1682;49.286;10.788;2023-06-22T07:59:41;7.50;;;5.37;;
3337;SDS011;1682;49.286;10.788;2023-06-22T08:02:10;6.50;;;5.90;;
3337;SDS011;1682;49.286;10.788;2023-06-22T08:04:37;6.77;;;6.13;;
3337;SDS011;1682;49.286;10.788;2023-06-22T08:07:05;7.70;;;6.00;;
3337;SDS011;1682;49.286;10.788;2023-06-22T08:09:32;7.00;;;6.40;;
3337;SDS011;1682;49.286;10.788;2023-06-22T08:11:59;6.97;;;6.33;;
3337;SDS011;1682;49.286;10.788;2023-06-22T08:14:27;5.97;;;5.47;;
3337;SDS011;1682;49.286;10.788;2023-06-22T08:16:54;6.73;;;6.13;;
3337;SDS011;1682;49.286;10.788;2023-06-22T08:19:23;8.53;;;6.57;;
3337;SDS011;1682;49.286;10.788;2023-06-22T08:21:50;6.60;;;6.03;;
3337;SDS011;1682;49.286;10.788;2023-06-22T08:24:17;6.87;;;4.83;;
3337;SDS011;1682;49.286;10.788;2023-06-22T08:26:44;7.70;;;5.70;;
3337;SDS011;1682;49.286;10.788;2023-06-22T08:29:12;6.43;;;5.80;;
3337;SDS011;1682;49.286;10.788;2023-06-22T08:31:39;6.60;;;6.10;;
3337;SDS011;1682;49.286;10.788;2023-06-22T08:34:06;9.80;;;6.40;;
3337;SDS011;1682;49.286;10.788;2023-06-22T08:36:35;11.53;;;5.63;;
3337;SDS011;1682;49.286;10.788;2023-06-22T08:39:06;6.77;;;5.77;;
3337;SDS011;1682;49.286;10.788;2023-06-22T08:41:34;8.03;;;5.70;;
3337;SDS011;1682;49.286;10.788;2023-06-22T08:44:01;6.43;;;5.73;;
3337;SDS011;1682;49.286;10.788;2023-06-22T08:46:29;6.97;;;4.73;;
3337;SDS011;1682;49.286;10.788;2023-06-22T08:48:58;7.13;;;5.80;;
3337;SDS011;1682;49.286;10.788;2023-06-22T08:51:25;7.87;;;5.47;;
3337;SDS011;1682;49.286;10.788;2023-06-22T08:53:55;6.10;;;5.60;;
3337;SDS011;1682;49.286;10.788;2023-06-22T08:56:22;6.23;;;4.80;;
3337;SDS011;1682;49.286;10.788;2023-06-22T08:58:49;5.73;;;5.23;;
3337;SDS011;1682;49.286;10.788;2023-06-22T09:01:16;5.83;;;4.97;;
3337;SDS011;1682;49.286;10.788;2023-06-22T09:03:44;4.90;;;4.50;;
3337;SDS011;1682;49.286;10.788;2023-06-22T09:06:19;6.10;;;4.50;;
3337;SDS011;1682;49.286;10.788;2023-06-22T09:08:46;5.30;;;4.80;;
3337;SDS011;1682;49.286;10.788;2023-06-22T09:11:15;9.37;;;5.07;;
3337;SDS011;1682;49.286;10.788;2023-06-22T09:13:43;6.60;;;4.03;;
3337;SDS011;1682;49.286;10.788;2023-06-22T09:16:11;6.70;;;5.23;;
3337;SDS011;1682;49.286;10.788;2023-06-22T09:18:38;6.50;;;4.77;;
3337;SDS011;1682;49.286;10.788;2023-06-22T09:21:06;5.70;;;4.50;;
3337;SDS011;1682;49.286;10.788;2023-06-22T09:23:33;5.30;;;4.60;;
3337;SDS011;1682;49.286;10.788;2023-06-22T09:26:01;7.23;;;5.90;;
3337;SDS011;1682;49.286;10.788;2023-06-22T09:28:30;8.30;;;5.00;;
3337;SDS011;1682;49.286;10.788;2023-06-22T09:30:58;6.07;;;5.57;;
3337;SDS011;1682;49.286;10.788;2023-06-22T09:33:25;5.47;;;4.90;;
3337;SDS011;1682;49.286;10.788;2023-06-22T09:35:53;5.93;;;5.10;;
3337;SDS011;1682;49.286;10.788;2023-06-22T09:38:21;6.63;;;5.20;;
3337;SDS011;1682;49.286;10.788;2023-06-22T09:40:48;6.73;;;5.57;;
3337;SDS011;1682;49.286;10.788;2023-06-22T09:43:16;4.67;;;4.27;;
3337;SDS011;1682;49.286;10.788;2023-06-22T09:45:45;5.40;;;4.50;;
3337;SDS011;1682;49.286;10.788;2023-06-22T09:48:12;5.07;;;4.67;;
3337;SDS011;1682;49.286;10.788;2023-06-22T09:50:39;6.57;;;5.43;;
3337;SDS011;1682;49.286;10.788;2023-06-22T09:53:07;5.70;;;4.30;;
3337;SDS011;1682;49.286;10.788;2023-06-22T09:55:34;7.07;;;4.20;;
3337;SDS011;1682;49.286;10.788;2023-06-22T09:58:01;5.30;;;4.50;;
3337;SDS011;1682;49.286;10.788;2023-06-22T10:00:28;4.73;;;4.33;;
3337;SDS011;1682;49.286;10.788;2023-06-22T10:02:57;6.10;;;5.00;;
3337;SDS011;1682;49.286;10.788;2023-06-22T10:05:24;7.65;;;5.40;;
3337;SDS011;1682;49.286;10.788;2023-06-22T10:07:51;5.80;;;5.30;;
3337;SDS011;1682;49.286;10.788;2023-06-22T10:10:18;7.53;;;5.63;;
3337;SDS011;1682;49.286;10.788;2023-06-22T10:12:46;5.03;;;3.87;;
3337;SDS011;1682;49.286;10.788;2023-06-22T10:15:14;5.10;;;4.03;;
3337;SDS011;1682;49.286;10.788;2023-06-22T10:17:41;5.47;;;4.50;;
3337;SDS011;1682;49.286;10.788;2023-06-22T10:20:10;4.67;;;4.17;;
3337;SDS011;1682;49.286;10.788;2023-06-22T10:22:38;4.37;;;3.97;;
3337;SDS011;1682;49.286;10.788;2023-06-22T10:25:06;5.07;;;4.50;;
3337;SDS011;1682;49.286;10.788;2023-06-22T10:27:34;7.20;;;4.10;;
3337;SDS011;1682;49.286;10.788;2023-06-22T10:30:01;9.30;;;5.57;;
3337;SDS011;1682;49.286;10.788;2023-06-22T10:32:30;5.97;;;5.50;;
3337;SDS011;1682;49.286;10.788;2023-06-22T10:34:58;5.77;;;3.80;;
3337;SDS011;1682;49.286;10.788;2023-06-22T10:37:26;9.73;;;8.33;;
3337;SDS011;1682;49.286;10.788;2023-06-22T10:39:53;6.03;;;4.50;;
3337;SDS011;1682;49.286;10.788;2023-06-22T10:42:21;7.20;;;4.10;;
3337;SDS011;1682;49.286;10.788;2023-06-22T10:44:48;10.30;;;5.07;;
3337;SDS011;1682;49.286;10.788;2023-06-22T10:47:15;7.93;;;4.03;;
3337;SDS011;1682;49.286;10.788;2023-06-22T10:49:42;5.33;;;3.77;;
3337;SDS011;1682;49.286;10.788;2023-06-22T10:52:09;4.60;;;4.20;;
3337;SDS011;1682;49.286;10.788;2023-06-22T10:54:38;5.73;;;5.00;;
3337;SDS011;1682;49.286;10.788;2023-06-22T10:57:06;9.70;;;4.30;;
3337;SDS011;1682;49.286;10.788;2023-06-22T10:59:33;8.67;;;5.30;;
3337;SDS011;1682;49.286;10.788;2023-06-22T11:02:00;9.40;;;6.27;;
3337;SDS011;1682;49.286;10.788;2023-06-22T11:04:27;7.30;;;4.57;;
3337;SDS011;1682;49.286;10.788;2023-06-22T11:06:55;5.43;;;4.50;;
3337;SDS011;1682;49.286;10.788;2023-06-22T11:09:22;6.87;;;5.13;;
3337;SDS011;1682;49.286;10.788;2023-06-22T11:11:51;6.27;;;4.13;;
3337;SDS011;1682;49.286;10.788;2023-06-22T11:14:19;5.20;;;4.47;;
3337;SDS011;1682;49.286;10.788;2023-06-22T11:16:46;7.87;;;4.00;;
3337;SDS011;1682;49.286;10.788;2023-06-22T11:19:14;5.80;;;4.60;;
3337;SDS011;1682;49.286;10.788;2023-06-22T11:21:41;9.90;;;5.70;;
3337;SDS011;1682;49.286;10.788;2023-06-22T11:24:08;4.83;;;4.23;;
3337;SDS011;1682;49.286;10.788;2023-06-22T11:26:36;5.23;;;4.30;;
3337;SDS011;1682;49.286;10.788;2023-06-22T11:29:04;5.70;;;4.40;;
3337;SDS011;1682;49.286;10.788;2023-06-22T11:31:33;7.73;;;5.80;;
3337;SDS011;1682;49.286;10.788;2023-06-22T11:34:00;7.43;;;4.53;;
3337;SDS011;1682;49.286;10.788;2023-06-22T11:36:28;5.67;;;4.73;;
3337;SDS011;1682;49.286;10.788;2023-06-22T11:38:58;6.00;;;4.23;;
3337;SDS011;1682;49.286;10.788;2023-06-22T11:41:25;5.57;;;4.80;;
3337;SDS011;1682;49.286;10.788;2023-06-22T11:43:52;8.67;;;4.53;;
3337;SDS011;1682;49.286;10.788;2023-06-22T11:46:20;7.03;;;5.07;;
3337;SDS011;1682;49.286;10.788;2023-06-22T11:48:48;6.70;;;5.43;;
3337;SDS011;1682;49.286;10.788;2023-06-22T11:51:15;7.78;;;4.38;;
3337;SDS011;1682;49.286;10.788;2023-06-22T11:53:42;3.95;;;3.65;;
3337;SDS011;1682;49.286;10.788;2023-06-22T11:56:09;6.28;;;4.15;;
3337;SDS011;1682;49.286;10.788;2023-06-22T11:58:36;6.20;;;4.57;;
3337;SDS011;1682;49.286;10.788;2023-06-22T12:01:04;3.58;;;3.28;;
3337;SDS011;1682;49.286;10.788;2023-06-22T12:03:32;5.10;;;4.60;;
3337;SDS011;1682;49.286;10.788;2023-06-22T12:05:59;5.90;;;4.85;;
3337;SDS011;1682;49.286;10.788;2023-06-22T12:08:27;8.55;;;4.22;;
3337;SDS011;1682;49.286;10.788;2023-06-22T12:10:54;4.20;;;3.50;;
3337;SDS011;1682;49.286;10.788;2023-06-22T12:13:21;4.97;;;4.13;;
3337;SDS011;1682;49.286;10.788;2023-06-22T12:15:48;10.60;;;4.65;;
3337;SDS011;1682;49.286;10.788;2023-06-22T12:18:17;6.50;;;4.45;;
3337;SDS011;1682;49.286;10.788;2023-06-22T12:20:47;4.65;;;3.78;;
3337;SDS011;1682;49.286;10.788;2023-06-22T12:23:14;7.85;;;3.72;;
3337;SDS011;1682;49.286;10.788;2023-06-22T12:25:41;6.88;;;4.32;;
3337;SDS011;1682;49.286;10.788;2023-06-22T12:28:09;4.63;;;3.92;;
3337;SDS011;1682;49.286;10.788;2023-06-22T12:30:36;3.80;;;3.45;;
3337;SDS011;1682;49.286;10.788;2023-06-22T12:33:03;8.93;;;4.55;;
3337;SDS011;1682;49.286;10.788;2023-06-22T12:35:30;6.20;;;3.90;;
3337;SDS011;1682;49.286;10.788;2023-06-22T12:37:59;5.03;;;4.50;;
3337;SDS011;1682;49.286;10.788;2023-06-22T12:40:26;4.80;;;3.75;;
3337;SDS011;1682;49.286;10.788;2023-06-22T12:42:53;4.15;;;3.00;;
3337;SDS011;1682;49.286;10.788;2023-06-22T12:45:20;9.45;;;6.57;;
3337;SDS011;1682;49.286;10.788;2023-06-22T12:47:48;6.20;;;3.80;;
3337;SDS011;1682;49.286;10.788;2023-06-22T12:50:15;6.10;;;3.47;;
3337;SDS011;1682;49.286;10.788;2023-06-22T12:52:43;5.20;;;3.92;;
3337;SDS011;1682;49.286;10.788;2023-06-22T12:55:11;4.35;;;3.53;;
3337;SDS011;1682;49.286;10.788;2023-06-22T12:57:47;9.30;;;3.90;;
3337;SDS011;1682;49.286;10.788;2023-06-22T13:00:15;7.47;;;3.80;;
3337;SDS011;1682;49.286;10.788;2023-06-22T13:02:42;6.88;;;4.95;;
3337;SDS011;1682;49.286;10.788;2023-06-22T13:05:09;4.07;;;3.70;;
3337;SDS011;1682;49.286;10.788;2023-06-22T13:07:37;8.23;;;5.18;;
3337;SDS011;1682;49.286;10.788;2023-06-22T13:10:04;8.27;;;4.18;;
3337;SDS011;1682;49.286;10.788;2023-06-22T13:12:33;5.93;;;4.38;;
3337;SDS011;1682;49.286;10.788;2023-06-22T13:15:00;7.35;;;4.75;;
3337;SDS011;1682;49.286;10.788;2023-06-22T13:17:28;4.35;;;3.95;;
3337;SDS011;1682;49.286;10.788;2023-06-22T13:19:55;3.50;;;3.20;;
3337;SDS011;1682;49.286;10.788;2023-06-22T13:22:26;5.20;;;4.10;;
3337;SDS011;1682;49.286;10.788;2023-06-22T13:24:54;5.22;;;4.15;;
3337;SDS011;1682;49.286;10.788;2023-06-22T13:27:21;5.75;;;4.38;;
3337;SDS011;1682;49.286;10.788;2023-06-22T13:29:49;6.50;;;4.68;;
3337;SDS011;1682;49.286;10.788;2023-06-22T13:32:17;6.10;;;4.82;;
3337;SDS011;1682;49.286;10.788;2023-06-22T13:34:44;8.38;;;4.18;;
3337;SDS011;1682;49.286;10.788;2023-06-22T13:37:11;7.82;;;4.53;;
3337;SDS011;1682;49.286;10.788;2023-06-22T13:39:38;4.75;;;4.30;;
3337;SDS011;1682;49.286;10.788;2023-06-22T13:42:06;5.72;;;5.15;;
3337;SDS011;1682;49.286;10.788;2023-06-22T13:44:33;5.40;;;4.80;;
3337;SDS011;1682;49.286;10.788;2023-06-22T13:47:02;7.47;;;4.15;;
3337;SDS011;1682;49.286;10.788;2023-06-22T13:49:29;6.80;;;4.32;;
3337;SDS011;1682;49.286;10.788;2023-06-22T13:51:57;12.25;;;4.85;;
3337;SDS011;1682;49.286;10.788;2023-06-22T13:54:24;6.00;;;4.15;;
3337;SDS011;1682;49.286;10.788;2023-06-22T13:56:51;4.60;;;4.20;;
3337;SDS011;1682;49.286;10.788;2023-06-22T13:59:18;8.68;;;4.90;;
3337;SDS011;1682;49.286;10.788;2023-06-22T14:01:46;4.85;;;3.67;;
3337;SDS011;1682;49.286;10.788;2023-06-22T14:04:14;9.07;;;4.85;;
3337;SDS011;1682;49.286;10.788;2023-06-22T14:06:42;10.40;;;5.13;;
3337;SDS011;1682;49.286;10.788;2023-06-22T14:09:09;4.97;;;4.00;;
3337;SDS011;1682;49.286;10.788;2023-06-22T14:11:36;7.00;;;4.07;;
3337;SDS011;1682;49.286;10.788;2023-06-22T14:14:03;10.73;;;4.30;;
3337;SDS011;1682;49.286;10.788;2023-06-22T14:16:31;14.02;;;5.22;;
3337;SDS011;1682;49.286;10.788;2023-06-22T14:18:58;11.65;;;6.82;;
3337;SDS011;1682;49.286;10.788;2023-06-22T14:21:26;14.73;;;5.97;;
3337;SDS011;1682;49.286;10.788;2023-06-22T14:23:54;11.27;;;5.15;;
3337;SDS011;1682;49.286;10.788;2023-06-22T14:26:21;8.45;;;5.03;;
3337;SDS011;1682;49.286;10.788;2023-06-22T14:28:48;5.22;;;4.15;;
3337;SDS011;1682;49.286;10.788;2023-06-22T14:31:16;8.35;;;4.80;;
3337;SDS011;1682;49.286;10.788;2023-06-22T14:33:45;6.95;;;4.10;;
3337;SDS011;1682;49.286;10.788;2023-06-22T14:36:12;8.35;;;3.92;;
3337;SDS011;1682;49.286;10.788;2023-06-22T14:38:41;9.10;;;5.72;;
3337;SDS011;1682;49.286;10.788;2023-06-22T14:41:08;7.43;;;5.40;;
3337;SDS011;1682;49.286;10.788;2023-06-22T14:43:35;13.68;;;4.50;;
3337;SDS011;1682;49.286;10.788;2023-06-22T14:46:02;4.25;;;3.85;;
3337;SDS011;1682;49.286;10.788;2023-06-22T14:48:30;5.82;;;3.92;;
3337;SDS011;1682;49.286;10.788;2023-06-22T14:50:57;8.77;;;4.55;;
3337;SDS011;1682;49.286;10.788;2023-06-22T14:53:25;7.72;;;4.68;;
3337;SDS011;1682;49.286;10.788;2023-06-22T14:55:54;7.57;;;4.75;;
3337;SDS011;1682;49.286;10.788;2023-06-22T14:58:21;6.72;;;5.38;;
3337;SDS011;1682;49.286;10.788;2023-06-22T15:00:48;6.95;;;4.60;;
3337;SDS011;1682;49.286;10.788;2023-06-22T15:03:16;7.82;;;4.00;;
3337;SDS011;1682;49.286;10.788;2023-06-22T15:05:46;9.57;;;4.40;;
3337;SDS011;1682;49.286;10.788;2023-06-22T15:08:14;6.65;;;3.70;;
3337;SDS011;1682;49.286;10.788;2023-06-22T15:10:41;6.68;;;4.20;;